sensor_id;sensor_type;location;lat;lon;timestamp;temperature;humidity
3001;DHT22;1510;51.072;6.678;2022-07-15T00:00:47;12.20;99.90
3001;DHT22;1510;51.072;6.678;2022-07-15T00:04:08;12.10;99.90
3001;DHT22;1510;51.072;6.678;2022-07-15T00:07:21;12.20;99.90
3001;DHT22;1510;51.072;6.678;2022-07-15T00:11:31;12.20;99.90
3001;DHT22;1510;51.072;6.678;2022-07-15T00:13:29;12.20;99.90
3001;DHT22;1510;51.072;6.678;2022-07-15T00:16:57;12.10;99.90
3001;DHT22;1510;51.072;6.678;2022-07-15T00:20:06;12.00;99.90
3001;DHT22;1510;51.072;6.678;2022-07-15T00:23:42;12.10;99.90
3001;DHT22;1510;51.072;6.678;2022-07-15T00:26:11;12.20;99.90
3001;DHT22;1510;51.072;6.678;2022-07-15T00:29:22;12.10;99.90
3001;DHT22;1510;51.072;6.678;2022-07-15T00:35:45;12.30;99.90
3001;DHT22;1510;51.072;6.678;2022-07-15T00:39:54;12.40;99.90
3001;DHT22;1510;51.072;6.678;2022-07-15T00:41:52;12.50;99.90
3001;DHT22;1510;51.072;6.678;2022-07-15T00:45:24;12.60;99.90
3001;DHT22;1510;51.072;6.678;2022-07-15T00:48:27;12.80;99.90
3001;DHT22;1510;51.072;6.678;2022-07-15T00:51:35;12.90;99.90
3001;DHT22;1510;51.072;6.678;2022-07-15T00:54:31;12.90;99.90
3001;DHT22;1510;51.072;6.678;2022-07-15T00:57:49;13.00;99.90
3001;DHT22;1510;51.072;6.678;2022-07-15T01:07:50;13.20;99.90
3001;DHT22;1510;51.072;6.678;2022-07-15T01:10:55;13.20;99.90
3001;DHT22;1510;51.072;6.678;2022-07-15T01:14:00;13.10;99.90
3001;DHT22;1510;51.072;6.678;2022-07-15T01:17:12;13.20;99.90
3001;DHT22;1510;51.072;6.678;2022-07-15T01:20:01;13.40;99.90
3001;DHT22;1510;51.072;6.678;2022-07-15T01:22:57;13.50;99.90
3001;DHT22;1510;51.072;6.678;2022-07-15T01:25:46;13.60;99.90
3001;DHT22;1510;51.072;6.678;2022-07-15T01:28:54;13.70;99.90
3001;DHT22;1510;51.072;6.678;2022-07-15T01:31:46;13.70;99.90
3001;DHT22;1510;51.072;6.678;2022-07-15T01:34:40;13.80;99.90
3001;DHT22;1510;51.072;6.678;2022-07-15T01:37:54;13.90;99.90
3001;DHT22;1510;51.072;6.678;2022-07-15T01:41:25;13.80;99.90
3001;DHT22;1510;51.072;6.678;2022-07-15T01:44:16;14.00;99.90
3001;DHT22;1510;51.072;6.678;2022-07-15T01:48:03;14.00;99.90
3001;DHT22;1510;51.072;6.678;2022-07-15T01:51:13;14.10;99.90
3001;DHT22;1510;51.072;6.678;2022-07-15T01:54:42;14.10;99.90
3001;DHT22;1510;51.072;6.678;2022-07-15T01:57:45;14.10;99.90
3001;DHT22;1510;51.072;6.678;2022-07-15T02:04:17;14.20;99.60
3001;DHT22;1510;51.072;6.678;2022-07-15T02:07:51;14.10;99.30
3001;DHT22;1510;51.072;6.678;2022-07-15T02:13:49;13.90;99.20
3001;DHT22;1510;51.072;6.678;2022-07-15T02:16:30;13.80;99.90
3001;DHT22;1510;51.072;6.678;2022-07-15T02:19:34;13.70;99.90
3001;DHT22;1510;51.072;6.678;2022-07-15T02:22:50;13.50;99.90
3001;DHT22;1510;51.072;6.678;2022-07-15T02:29:17;13.40;99.90
3001;DHT22;1510;51.072;6.678;2022-07-15T02:32:25;13.50;99.90
3001;DHT22;1510;51.072;6.678;2022-07-15T02:35:25;13.40;99.90
3001;DHT22;1510;51.072;6.678;2022-07-15T02:38:34;13.30;99.90
3001;DHT22;1510;51.072;6.678;2022-07-15T02:42:18;13.40;99.90
3001;DHT22;1510;51.072;6.678;2022-07-15T02:45:26;13.40;99.90
3001;DHT22;1510;51.072;6.678;2022-07-15T02:48:15;13.30;99.90
3001;DHT22;1510;51.072;6.678;2022-07-15T02:51:38;13.20;99.90
3001;DHT22;1510;51.072;6.678;2022-07-15T02:57:46;13.10;99.90
3001;DHT22;1510;51.072;6.678;2022-07-15T03:07:20;12.80;99.90
3001;DHT22;1510;51.072;6.678;2022-07-15T03:10:23;12.70;99.90
3001;DHT22;1510;51.072;6.678;2022-07-15T03:13:25;12.80;99.90
3001;DHT22;1510;51.072;6.678;2022-07-15T03:19:51;12.60;99.90
3001;DHT22;1510;51.072;6.678;2022-07-15T03:26:34;12.60;99.90
3001;DHT22;1510;51.072;6.678;2022-07-15T03:29:35;12.70;99.90
3001;DHT22;1510;51.072;6.678;2022-07-15T03:32:29;12.60;99.90
3001;DHT22;1510;51.072;6.678;2022-07-15T03:35:30;12.50;99.90
3001;DHT22;1510;51.072;6.678;2022-07-15T03:38:45;12.50;99.90
3001;DHT22;1510;51.072;6.678;2022-07-15T03:41:56;12.40;99.90
3001;DHT22;1510;51.072;6.678;2022-07-15T03:45:06;12.40;99.90
3001;DHT22;1510;51.072;6.678;2022-07-15T03:51:23;12.50;99.90
3001;DHT22;1510;51.072;6.678;2022-07-15T03:57:50;12.70;99.90
3001;DHT22;1510;51.072;6.678;2022-07-15T04:03:56;13.10;99.90
3001;DHT22;1510;51.072;6.678;2022-07-15T04:09:58;13.40;99.90
3001;DHT22;1510;51.072;6.678;2022-07-15T04:13:20;13.30;99.90
3001;DHT22;1510;51.072;6.678;2022-07-15T04:16:25;13.40;99.90
3001;DHT22;1510;51.072;6.678;2022-07-15T04:19:26;13.40;99.90
3001;DHT22;1510;51.072;6.678;2022-07-15T04:22:17;13.40;99.90
3001;DHT22;1510;51.072;6.678;2022-07-15T04:24:48;13.40;99.90
3001;DHT22;1510;51.072;6.678;2022-07-15T04:27:19;13.50;99.90
3001;DHT22;1510;51.072;6.678;2022-07-15T04:29:50;13.50;99.90
3001;DHT22;1510;51.072;6.678;2022-07-15T04:32:29;13.50;99.50
3001;DHT22;1510;51.072;6.678;2022-07-15T04:35:00;13.70;99.20
3001;DHT22;1510;51.072;6.678;2022-07-15T04:37:36;13.70;98.50
3001;DHT22;1510;51.072;6.678;2022-07-15T04:40:20;13.80;97.60
3001;DHT22;1510;51.072;6.678;2022-07-15T04:42:52;13.80;97.00
3001;DHT22;1510;51.072;6.678;2022-07-15T04:45:26;14.00;96.50
3001;DHT22;1510;51.072;6.678;2022-07-15T04:47:56;14.00;94.70
3001;DHT22;1510;51.072;6.678;2022-07-15T04:50:45;14.20;94.40
3001;DHT22;1510;51.072;6.678;2022-07-15T04:53:20;14.10;94.00
3001;DHT22;1510;51.072;6.678;2022-07-15T04:55:47;14.10;94.00
3001;DHT22;1510;51.072;6.678;2022-07-15T04:58:22;14.10;92.70
3001;DHT22;1510;51.072;6.678;2022-07-15T05:00:54;14.20;92.70
3001;DHT22;1510;51.072;6.678;2022-07-15T05:03:32;14.20;91.50
3001;DHT22;1510;51.072;6.678;2022-07-15T05:15:54;14.50;91.30
3001;DHT22;1510;51.072;6.678;2022-07-15T05:18:41;14.50;90.60
3001;DHT22;1510;51.072;6.678;2022-07-15T05:22:03;14.50;90.00
3001;DHT22;1510;51.072;6.678;2022-07-15T05:25:50;14.60;90.40
3001;DHT22;1510;51.072;6.678;2022-07-15T05:28:11;14.70;88.90
3001;DHT22;1510;51.072;6.678;2022-07-15T05:31:27;14.80;89.90
3001;DHT22;1510;51.072;6.678;2022-07-15T05:37:32;14.90;86.30
3001;DHT22;1510;51.072;6.678;2022-07-15T05:46:48;15.20;81.70
3001;DHT22;1510;51.072;6.678;2022-07-15T05:49:36;15.20;81.70
3001;DHT22;1510;51.072;6.678;2022-07-15T05:58:39;15.20;82.80
3001;DHT22;1510;51.072;6.678;2022-07-15T06:21:57;16.80;67.20
3001;DHT22;1510;51.072;6.678;2022-07-15T06:25:56;17.10;66.00
3001;DHT22;1510;51.072;6.678;2022-07-15T06:42:22;18.40;51.90
3001;DHT22;1510;51.072;6.678;2022-07-15T06:45:23;18.60;51.90
3001;DHT22;1510;51.072;6.678;2022-07-15T06:47:54;18.80;49.20
3001;DHT22;1510;51.072;6.678;2022-07-15T06:56:46;19.10;44.70
3001;DHT22;1510;51.072;6.678;2022-07-15T06:59:47;19.70;42.00
3001;DHT22;1510;51.072;6.678;2022-07-15T07:02:27;19.40;43.80
3001;DHT22;1510;51.072;6.678;2022-07-15T07:05:12;19.50;42.80
3001;DHT22;1510;51.072;6.678;2022-07-15T07:08:21;19.80;40.60
3001;DHT22;1510;51.072;6.678;2022-07-15T07:11:42;19.70;40.30
3001;DHT22;1510;51.072;6.678;2022-07-15T07:17:41;19.70;39.50
3001;DHT22;1510;51.072;6.678;2022-07-15T07:20:50;20.00;35.90
3001;DHT22;1510;51.072;6.678;2022-07-15T07:23:53;20.60;35.10
3001;DHT22;1510;51.072;6.678;2022-07-15T07:26:44;20.10;32.20
3001;DHT22;1510;51.072;6.678;2022-07-15T07:29:15;20.00;32.60
3001;DHT22;1510;51.072;6.678;2022-07-15T07:31:56;20.10;32.30
3001;DHT22;1510;51.072;6.678;2022-07-15T07:38:05;20.10;29.70
3001;DHT22;1510;51.072;6.678;2022-07-15T07:43:57;20.80;27.60
3001;DHT22;1510;51.072;6.678;2022-07-15T07:46:28;21.30;25.30
3001;DHT22;1510;51.072;6.678;2022-07-15T07:49:06;21.90;26.60
3001;DHT22;1510;51.072;6.678;2022-07-15T07:51:54;22.50;24.80
3001;DHT22;1510;51.072;6.678;2022-07-15T07:54:47;22.00;22.70
3001;DHT22;1510;51.072;6.678;2022-07-15T07:57:21;22.40;24.00
3001;DHT22;1510;51.072;6.678;2022-07-15T08:00:22;23.00;20.70
3001;DHT22;1510;51.072;6.678;2022-07-15T08:02:53;22.70;14.10
3001;DHT22;1510;51.072;6.678;2022-07-15T08:05:48;22.00;22.40
3001;DHT22;1510;51.072;6.678;2022-07-15T08:08:30;21.80;20.30
3001;DHT22;1510;51.072;6.678;2022-07-15T08:11:07;21.50;17.60
3001;DHT22;1510;51.072;6.678;2022-07-15T08:13:46;20.80;20.30
3001;DHT22;1510;51.072;6.678;2022-07-15T08:16:34;20.60;20.20
3001;DHT22;1510;51.072;6.678;2022-07-15T08:19:23;21.00;21.50
3001;DHT22;1510;51.072;6.678;2022-07-15T08:22:14;21.90;16.10
3001;DHT22;1510;51.072;6.678;2022-07-15T08:25:07;22.00;16.70
3001;DHT22;1510;51.072;6.678;2022-07-15T08:28:04;22.50;18.10
3001;DHT22;1510;51.072;6.678;2022-07-15T08:30:55;22.70;10.60
3001;DHT22;1510;51.072;6.678;2022-07-15T08:33:36;23.00;5.60
3001;DHT22;1510;51.072;6.678;2022-07-15T08:36:16;23.00;3.80
3001;DHT22;1510;51.072;6.678;2022-07-15T08:39:03;23.70;9.20
3001;DHT22;1510;51.072;6.678;2022-07-15T08:44:46;22.80;7.70
3001;DHT22;1510;51.072;6.678;2022-07-15T08:47:24;23.40;5.70
3001;DHT22;1510;51.072;6.678;2022-07-15T08:50:06;22.50;5.40
3001;DHT22;1510;51.072;6.678;2022-07-15T08:56:01;24.20;1.70
3001;DHT22;1510;51.072;6.678;2022-07-15T08:58:38;24.20;1.00
3001;DHT22;1510;51.072;6.678;2022-07-15T09:01:16;24.30;3.20
3001;DHT22;1510;51.072;6.678;2022-07-15T09:03:49;24.50;3.20
3001;DHT22;1510;51.072;6.678;2022-07-15T09:06:39;24.60;5.60
3001;DHT22;1510;51.072;6.678;2022-07-15T09:13:02;25.10;1.00
3001;DHT22;1510;51.072;6.678;2022-07-15T09:15:41;24.20;1.00
3001;DHT22;1510;51.072;6.678;2022-07-15T09:18:12;24.20;1.00
3001;DHT22;1510;51.072;6.678;2022-07-15T09:23:22;23.20;1.00
3001;DHT22;1510;51.072;6.678;2022-07-15T09:24:32;22.40;2.80
3001;DHT22;1510;51.072;6.678;2022-07-15T09:27:44;21.30;5.50
3001;DHT22;1510;51.072;6.678;2022-07-15T09:30:29;20.60;6.30
3001;DHT22;1510;51.072;6.678;2022-07-15T09:36:40;19.80;9.90
3001;DHT22;1510;51.072;6.678;2022-07-15T09:39:22;21.10;9.00
3001;DHT22;1510;51.072;6.678;2022-07-15T09:42:08;22.10;2.30
3001;DHT22;1510;51.072;6.678;2022-07-15T09:44:41;23.10;1.00
3001;DHT22;1510;51.072;6.678;2022-07-15T09:47:18;23.80;1.00
3001;DHT22;1510;51.072;6.678;2022-07-15T09:50:01;25.00;1.00
3001;DHT22;1510;51.072;6.678;2022-07-15T09:52:56;26.50;1.00
3001;DHT22;1510;51.072;6.678;2022-07-15T09:59:19;26.40;1.00
3001;DHT22;1510;51.072;6.678;2022-07-15T10:05:29;25.40;1.00
3001;DHT22;1510;51.072;6.678;2022-07-15T10:08:19;24.70;1.00
3001;DHT22;1510;51.072;6.678;2022-07-15T10:17:39;23.80;1.00
3001;DHT22;1510;51.072;6.678;2022-07-15T10:20:51;23.80;1.00
3001;DHT22;1510;51.072;6.678;2022-07-15T10:29:58;22.90;1.00
3001;DHT22;1510;51.072;6.678;2022-07-15T10:36:09;22.60;1.00
3001;DHT22;1510;51.072;6.678;2022-07-15T10:38:44;22.50;2.50
3001;DHT22;1510;51.072;6.678;2022-07-15T10:42:03;23.00;2.00
3001;DHT22;1510;51.072;6.678;2022-07-15T10:48:31;26.10;1.00
3001;DHT22;1510;51.072;6.678;2022-07-15T10:55:05;26.10;1.00
3001;DHT22;1510;51.072;6.678;2022-07-15T11:01:11;25.30;1.00
3001;DHT22;1510;51.072;6.678;2022-07-15T11:04:13;26.10;1.00
3001;DHT22;1510;51.072;6.678;2022-07-15T11:07:25;27.30;1.00
3001;DHT22;1510;51.072;6.678;2022-07-15T11:16:47;25.20;1.00
3001;DHT22;1510;51.072;6.678;2022-07-15T11:19:24;24.00;1.00
3001;DHT22;1510;51.072;6.678;2022-07-15T11:22:02;23.40;1.00
3001;DHT22;1510;51.072;6.678;2022-07-15T11:24:55;23.30;1.00
3001;DHT22;1510;51.072;6.678;2022-07-15T11:27:40;23.10;1.00
3001;DHT22;1510;51.072;6.678;2022-07-15T11:30:59;22.70;1.00
3001;DHT22;1510;51.072;6.678;2022-07-15T11:33:39;22.60;1.00
3001;DHT22;1510;51.072;6.678;2022-07-15T11:36:19;22.90;1.00
3001;DHT22;1510;51.072;6.678;2022-07-15T11:38:57;24.10;1.00
3001;DHT22;1510;51.072;6.678;2022-07-15T11:41:24;25.50;1.00
3001;DHT22;1510;51.072;6.678;2022-07-15T11:44:13;27.40;1.00
3001;DHT22;1510;51.072;6.678;2022-07-15T11:47:10;28.30;1.00
3001;DHT22;1510;51.072;6.678;2022-07-15T11:50:08;27.10;1.00
3001;DHT22;1510;51.072;6.678;2022-07-15T11:55:54;27.90;1.00
3001;DHT22;1510;51.072;6.678;2022-07-15T11:58:32;27.90;1.00
3001;DHT22;1510;51.072;6.678;2022-07-15T12:04:07;29.90;1.00
3001;DHT22;1510;51.072;6.678;2022-07-15T12:07:05;30.70;1.00
3001;DHT22;1510;51.072;6.678;2022-07-15T12:09:56;29.20;1.00
3001;DHT22;1510;51.072;6.678;2022-07-15T12:15:34;28.70;1.00
3001;DHT22;1510;51.072;6.678;2022-07-15T12:18:24;30.80;1.00
3001;DHT22;1510;51.072;6.678;2022-07-15T12:24:39;27.40;1.00
3001;DHT22;1510;51.072;6.678;2022-07-15T12:27:17;26.10;1.00
3001;DHT22;1510;51.072;6.678;2022-07-15T12:30:28;25.20;1.00
3001;DHT22;1510;51.072;6.678;2022-07-15T12:33:27;24.60;1.00
3001;DHT22;1510;51.072;6.678;2022-07-15T12:36:27;25.20;1.00
3001;DHT22;1510;51.072;6.678;2022-07-15T12:46:00;24.10;1.00
3001;DHT22;1510;51.072;6.678;2022-07-15T12:48:43;26.00;1.00
3001;DHT22;1510;51.072;6.678;2022-07-15T12:54:28;28.40;1.00
3001;DHT22;1510;51.072;6.678;2022-07-15T12:57:36;29.60;1.00
3001;DHT22;1510;51.072;6.678;2022-07-15T13:04:54;27.40;1.00
3001;DHT22;1510;51.072;6.678;2022-07-15T13:08:19;26.30;1.00
3001;DHT22;1510;51.072;6.678;2022-07-15T13:11:16;25.20;1.00
3001;DHT22;1510;51.072;6.678;2022-07-15T13:14:28;24.20;1.00
3001;DHT22;1510;51.072;6.678;2022-07-15T13:20:26;26.50;1.00
3001;DHT22;1510;51.072;6.678;2022-07-15T13:23:22;27.70;1.00
3001;DHT22;1510;51.072;6.678;2022-07-15T13:35:49;26.20;1.00
3001;DHT22;1510;51.072;6.678;2022-07-15T13:38:56;25.20;1.00
3001;DHT22;1510;51.072;6.678;2022-07-15T13:43:20;24.60;1.00
3001;DHT22;1510;51.072;6.678;2022-07-15T13:45:21;23.80;1.00
3001;DHT22;1510;51.072;6.678;2022-07-15T13:55:19;23.30;1.00
3001;DHT22;1510;51.072;6.678;2022-07-15T13:58:32;23.30;1.00
3001;DHT22;1510;51.072;6.678;2022-07-15T14:01:43;25.60;1.00
3001;DHT22;1510;51.072;6.678;2022-07-15T14:04:56;27.00;1.00
3001;DHT22;1510;51.072;6.678;2022-07-15T14:07:36;27.20;1.00
3001;DHT22;1510;51.072;6.678;2022-07-15T14:10:25;26.10;1.00
3001;DHT22;1510;51.072;6.678;2022-07-15T14:13:16;25.50;1.00
3001;DHT22;1510;51.072;6.678;2022-07-15T14:16:12;24.90;1.00
3001;DHT22;1510;51.072;6.678;2022-07-15T14:25:19;26.20;1.00
3001;DHT22;1510;51.072;6.678;2022-07-15T14:31:26;28.40;1.00
3001;DHT22;1510;51.072;6.678;2022-07-15T14:34:19;29.60;1.00
3001;DHT22;1510;51.072;6.678;2022-07-15T14:37:36;31.20;1.00
3001;DHT22;1510;51.072;6.678;2022-07-15T14:45:33;31.00;1.00
3001;DHT22;1510;51.072;6.678;2022-07-15T14:46:57;30.20;1.00
3001;DHT22;1510;51.072;6.678;2022-07-15T14:50:04;28.70;1.00
3001;DHT22;1510;51.072;6.678;2022-07-15T14:52:55;26.90;1.00
3001;DHT22;1510;51.072;6.678;2022-07-15T14:55:38;26.20;1.00
3001;DHT22;1510;51.072;6.678;2022-07-15T14:58:07;25.40;1.00
3001;DHT22;1510;51.072;6.678;2022-07-15T15:00:51;24.90;1.00
3001;DHT22;1510;51.072;6.678;2022-07-15T15:03:31;24.60;1.00
3001;DHT22;1510;51.072;6.678;2022-07-15T15:06:28;24.70;1.00
3001;DHT22;1510;51.072;6.678;2022-07-15T15:08:58;24.80;1.00
3001;DHT22;1510;51.072;6.678;2022-07-15T15:11:38;25.10;1.00
3001;DHT22;1510;51.072;6.678;2022-07-15T15:14:26;25.40;1.00
3001;DHT22;1510;51.072;6.678;2022-07-15T15:17:12;25.50;1.00
3001;DHT22;1510;51.072;6.678;2022-07-15T15:19:58;24.80;1.00
3001;DHT22;1510;51.072;6.678;2022-07-15T15:23:10;24.40;1.00
3001;DHT22;1510;51.072;6.678;2022-07-15T15:25:31;24.30;1.00
3001;DHT22;1510;51.072;6.678;2022-07-15T15:34:51;25.50;1.00
3001;DHT22;1510;51.072;6.678;2022-07-15T15:37:32;26.40;1.00
3001;DHT22;1510;51.072;6.678;2022-07-15T15:40:25;26.40;1.00
3001;DHT22;1510;51.072;6.678;2022-07-15T15:44:12;26.90;1.00
3001;DHT22;1510;51.072;6.678;2022-07-15T15:46:35;27.10;1.00
3001;DHT22;1510;51.072;6.678;2022-07-15T15:49:26;29.20;1.00
3001;DHT22;1510;51.072;6.678;2022-07-15T15:58:38;25.90;1.00
3001;DHT22;1510;51.072;6.678;2022-07-15T16:01:36;26.10;1.00
3001;DHT22;1510;51.072;6.678;2022-07-15T16:04:55;26.60;1.00
3001;DHT22;1510;51.072;6.678;2022-07-15T16:07:45;25.80;1.00
3001;DHT22;1510;51.072;6.678;2022-07-15T16:10:59;26.20;1.00
3001;DHT22;1510;51.072;6.678;2022-07-15T16:13:30;27.00;1.00
3001;DHT22;1510;51.072;6.678;2022-07-15T16:16:26;27.20;1.00
3001;DHT22;1510;51.072;6.678;2022-07-15T16:19:06;26.50;1.00
3001;DHT22;1510;51.072;6.678;2022-07-15T16:21:33;25.70;1.00
3001;DHT22;1510;51.072;6.678;2022-07-15T16:24:17;24.80;1.00
3001;DHT22;1510;51.072;6.678;2022-07-15T16:26:44;24.20;1.00
3001;DHT22;1510;51.072;6.678;2022-07-15T16:29:11;23.80;1.00
3001;DHT22;1510;51.072;6.678;2022-07-15T16:31:39;23.60;1.00
3001;DHT22;1510;51.072;6.678;2022-07-15T16:34:06;24.00;1.00
3001;DHT22;1510;51.072;6.678;2022-07-15T16:36:48;25.60;1.00
3001;DHT22;1510;51.072;6.678;2022-07-15T16:39:41;27.60;1.00
3001;DHT22;1510;51.072;6.678;2022-07-15T16:46:15;29.60;1.00
3001;DHT22;1510;51.072;6.678;2022-07-15T16:55:55;26.20;1.00
3001;DHT22;1510;51.072;6.678;2022-07-15T16:58:36;25.00;1.00
3001;DHT22;1510;51.072;6.678;2022-07-15T17:01:48;24.00;1.00
3001;DHT22;1510;51.072;6.678;2022-07-15T17:05:21;24.20;1.00
3001;DHT22;1510;51.072;6.678;2022-07-15T17:08:03;25.40;1.00
3001;DHT22;1510;51.072;6.678;2022-07-15T17:10:54;26.60;1.00
3001;DHT22;1510;51.072;6.678;2022-07-15T17:13:42;27.30;1.00
3001;DHT22;1510;51.072;6.678;2022-07-15T17:17:22;27.70;1.00
3001;DHT22;1510;51.072;6.678;2022-07-15T17:22:50;29.40;1.00
3001;DHT22;1510;51.072;6.678;2022-07-15T17:25:38;29.50;1.00
3001;DHT22;1510;51.072;6.678;2022-07-15T17:31:23;29.10;1.00
3001;DHT22;1510;51.072;6.678;2022-07-15T17:34:20;29.40;1.00
3001;DHT22;1510;51.072;6.678;2022-07-15T17:37:19;28.80;1.00
3001;DHT22;1510;51.072;6.678;2022-07-15T17:40:06;28.70;1.00
3001;DHT22;1510;51.072;6.678;2022-07-15T17:43:08;28.50;1.00
3001;DHT22;1510;51.072;6.678;2022-07-15T17:45:41;27.60;1.00
3001;DHT22;1510;51.072;6.678;2022-07-15T17:49:23;27.40;1.00
3001;DHT22;1510;51.072;6.678;2022-07-15T17:51:44;27.20;1.00
3001;DHT22;1510;51.072;6.678;2022-07-15T17:54:37;27.50;1.00
3001;DHT22;1510;51.072;6.678;2022-07-15T17:57:30;28.20;1.00
3001;DHT22;1510;51.072;6.678;2022-07-15T18:00:45;28.20;1.00
3001;DHT22;1510;51.072;6.678;2022-07-15T18:03:17;28.30;1.00
3001;DHT22;1510;51.072;6.678;2022-07-15T18:06:29;27.70;1.00
3001;DHT22;1510;51.072;6.678;2022-07-15T18:13:04;28.70;1.00
3001;DHT22;1510;51.072;6.678;2022-07-15T18:15:54;28.60;1.00
3001;DHT22;1510;51.072;6.678;2022-07-15T18:18:22;28.80;1.00
3001;DHT22;1510;51.072;6.678;2022-07-15T18:20:51;28.90;1.00
3001;DHT22;1510;51.072;6.678;2022-07-15T18:23:19;29.00;1.00
3001;DHT22;1510;51.072;6.678;2022-07-15T18:25:46;29.20;1.00
3001;DHT22;1510;51.072;6.678;2022-07-15T18:28:12;29.40;1.00
3001;DHT22;1510;51.072;6.678;2022-07-15T18:30:39;29.50;1.00
3001;DHT22;1510;51.072;6.678;2022-07-15T18:33:06;29.50;1.00
3001;DHT22;1510;51.072;6.678;2022-07-15T18:35:34;29.60;1.00
3001;DHT22;1510;51.072;6.678;2022-07-15T18:38:01;29.10;1.00
3001;DHT22;1510;51.072;6.678;2022-07-15T18:40:27;28.50;1.00
3001;DHT22;1510;51.072;6.678;2022-07-15T18:42:54;28.00;1.00
3001;DHT22;1510;51.072;6.678;2022-07-15T18:45:21;27.30;1.00
3001;DHT22;1510;51.072;6.678;2022-07-15T18:47:48;27.10;1.00
3001;DHT22;1510;51.072;6.678;2022-07-15T18:50:15;26.90;1.00
3001;DHT22;1510;51.072;6.678;2022-07-15T18:52:43;26.50;1.00
3001;DHT22;1510;51.072;6.678;2022-07-15T18:55:09;26.10;1.00
3001;DHT22;1510;51.072;6.678;2022-07-15T18:57:36;25.70;1.00
3001;DHT22;1510;51.072;6.678;2022-07-15T19:00:04;25.30;1.00
3001;DHT22;1510;51.072;6.678;2022-07-15T19:02:31;25.10;1.00
3001;DHT22;1510;51.072;6.678;2022-07-15T19:04:58;24.90;1.00
3001;DHT22;1510;51.072;6.678;2022-07-15T19:07:26;24.40;1.00
3001;DHT22;1510;51.072;6.678;2022-07-15T19:09:54;24.00;1.00
3001;DHT22;1510;51.072;6.678;2022-07-15T19:12:21;23.50;1.00
3001;DHT22;1510;51.072;6.678;2022-07-15T19:14:48;23.20;1.00
3001;DHT22;1510;51.072;6.678;2022-07-15T19:17:15;22.80;1.00
3001;DHT22;1510;51.072;6.678;2022-07-15T19:19:41;22.20;1.00
3001;DHT22;1510;51.072;6.678;2022-07-15T19:22:08;21.20;1.00
3001;DHT22;1510;51.072;6.678;2022-07-15T19:24:36;20.60;1.00
3001;DHT22;1510;51.072;6.678;2022-07-15T19:27:05;20.20;2.60
3001;DHT22;1510;51.072;6.678;2022-07-15T19:29:32;19.80;4.40
3001;DHT22;1510;51.072;6.678;2022-07-15T19:31:59;19.50;5.90
3001;DHT22;1510;51.072;6.678;2022-07-15T19:34:26;19.10;8.10
3001;DHT22;1510;51.072;6.678;2022-07-15T19:36:53;18.60;10.00
3001;DHT22;1510;51.072;6.678;2022-07-15T19:39:20;18.10;11.80
3001;DHT22;1510;51.072;6.678;2022-07-15T19:41:47;17.80;14.30
3001;DHT22;1510;51.072;6.678;2022-07-15T19:44:15;17.40;16.70
3001;DHT22;1510;51.072;6.678;2022-07-15T19:46:42;17.20;17.70
3001;DHT22;1510;51.072;6.678;2022-07-15T19:49:09;16.90;19.60
3001;DHT22;1510;51.072;6.678;2022-07-15T19:51:37;16.80;20.90
3001;DHT22;1510;51.072;6.678;2022-07-15T19:54:04;16.50;21.50
3001;DHT22;1510;51.072;6.678;2022-07-15T20:51:59;14.30;41.90
3001;DHT22;1510;51.072;6.678;2022-07-15T20:54:26;14.30;43.60
3001;DHT22;1510;51.072;6.678;2022-07-15T20:56:54;14.30;45.80
3001;DHT22;1510;51.072;6.678;2022-07-15T20:59:22;14.30;47.00
3001;DHT22;1510;51.072;6.678;2022-07-15T21:01:49;14.20;47.80
3001;DHT22;1510;51.072;6.678;2022-07-15T21:04:16;14.10;47.70
3001;DHT22;1510;51.072;6.678;2022-07-15T21:06:43;14.00;48.40
3001;DHT22;1510;51.072;6.678;2022-07-15T21:09:11;13.90;49.20
3001;DHT22;1510;51.072;6.678;2022-07-15T21:11:38;13.90;50.40
3001;DHT22;1510;51.072;6.678;2022-07-15T21:14:05;13.80;50.20
3001;DHT22;1510;51.072;6.678;2022-07-15T21:16:32;13.70;51.80
3001;DHT22;1510;51.072;6.678;2022-07-15T21:18:59;13.60;52.90
3001;DHT22;1510;51.072;6.678;2022-07-15T21:21:26;13.60;53.30
3001;DHT22;1510;51.072;6.678;2022-07-15T21:23:53;13.50;54.10
3001;DHT22;1510;51.072;6.678;2022-07-15T21:26:21;13.50;55.90
3001;DHT22;1510;51.072;6.678;2022-07-15T21:29:05;13.40;55.70
3001;DHT22;1510;51.072;6.678;2022-07-15T21:31:32;13.40;55.70
3001;DHT22;1510;51.072;6.678;2022-07-15T21:33:59;13.40;55.70
3001;DHT22;1510;51.072;6.678;2022-07-15T21:36:26;13.40;56.00
3001;DHT22;1510;51.072;6.678;2022-07-15T21:38:53;13.30;57.20
3001;DHT22;1510;51.072;6.678;2022-07-15T21:41:21;13.30;56.70
3001;DHT22;1510;51.072;6.678;2022-07-15T21:43:48;13.20;58.70
3001;DHT22;1510;51.072;6.678;2022-07-15T21:46:16;13.10;59.00
3001;DHT22;1510;51.072;6.678;2022-07-15T21:48:43;13.20;59.20
3001;DHT22;1510;51.072;6.678;2022-07-15T21:51:10;13.00;59.00
3001;DHT22;1510;51.072;6.678;2022-07-15T21:53:38;13.10;60.60
3001;DHT22;1510;51.072;6.678;2022-07-15T21:56:08;13.00;61.10
3001;DHT22;1510;51.072;6.678;2022-07-15T21:58:36;13.10;61.70
3001;DHT22;1510;51.072;6.678;2022-07-15T22:01:03;12.90;61.40
3001;DHT22;1510;51.072;6.678;2022-07-15T22:03:30;12.90;61.40
3001;DHT22;1510;51.072;6.678;2022-07-15T22:05:57;12.90;60.90
3001;DHT22;1510;51.072;6.678;2022-07-15T22:08:24;12.80;60.70
3001;DHT22;1510;51.072;6.678;2022-07-15T22:10:51;12.70;62.50
3001;DHT22;1510;51.072;6.678;2022-07-15T22:13:18;12.80;62.40
3001;DHT22;1510;51.072;6.678;2022-07-15T22:15:46;12.70;63.40
3001;DHT22;1510;51.072;6.678;2022-07-15T22:18:13;12.60;62.50
3001;DHT22;1510;51.072;6.678;2022-07-15T22:20:40;12.60;61.50
3001;DHT22;1510;51.072;6.678;2022-07-15T22:23:07;12.60;63.30
3001;DHT22;1510;51.072;6.678;2022-07-15T22:25:34;12.50;63.30
3001;DHT22;1510;51.072;6.678;2022-07-15T22:28:01;12.50;63.30
3001;DHT22;1510;51.072;6.678;2022-07-15T22:30:28;12.50;63.30
3001;DHT22;1510;51.072;6.678;2022-07-15T22:32:56;12.40;63.20
3001;DHT22;1510;51.072;6.678;2022-07-15T22:35:23;12.30;63.80
3001;DHT22;1510;51.072;6.678;2022-07-15T22:37:50;12.30;65.10
3001;DHT22;1510;51.072;6.678;2022-07-15T22:40:17;12.30;65.80
3001;DHT22;1510;51.072;6.678;2022-07-15T22:42:44;12.30;64.40
3001;DHT22;1510;51.072;6.678;2022-07-15T22:45:12;12.20;65.80
3001;DHT22;1510;51.072;6.678;2022-07-15T22:47:41;12.10;67.40
3001;DHT22;1510;51.072;6.678;2022-07-15T22:50:17;12.10;68.70
3001;DHT22;1510;51.072;6.678;2022-07-15T22:53:00;12.20;69.90
3001;DHT22;1510;51.072;6.678;2022-07-15T22:56:14;12.10;71.00
3001;DHT22;1510;51.072;6.678;2022-07-15T22:58:50;12.10;72.40
3001;DHT22;1510;51.072;6.678;2022-07-15T23:01:25;12.10;71.60
3001;DHT22;1510;51.072;6.678;2022-07-15T23:04:12;12.10;73.40
3001;DHT22;1510;51.072;6.678;2022-07-15T23:06:54;12.10;73.70
3001;DHT22;1510;51.072;6.678;2022-07-15T23:10:28;12.00;74.20
3001;DHT22;1510;51.072;6.678;2022-07-15T23:13:07;12.00;74.10
3001;DHT22;1510;51.072;6.678;2022-07-15T23:15:57;12.00;74.90
3001;DHT22;1510;51.072;6.678;2022-07-15T23:18:35;12.00;75.00
3001;DHT22;1510;51.072;6.678;2022-07-15T23:21:18;12.00;74.10
3001;DHT22;1510;51.072;6.678;2022-07-15T23:27:07;12.10;73.20
3001;DHT22;1510;51.072;6.678;2022-07-15T23:29:51;12.10;73.60
3001;DHT22;1510;51.072;6.678;2022-07-15T23:35:31;12.10;73.40
3001;DHT22;1510;51.072;6.678;2022-07-15T23:38:10;12.00;72.30
3001;DHT22;1510;51.072;6.678;2022-07-15T23:40:51;12.10;72.40
3001;DHT22;1510;51.072;6.678;2022-07-15T23:43:39;12.10;74.00
3001;DHT22;1510;51.072;6.678;2022-07-15T23:46:18;12.10;73.80
3001;DHT22;1510;51.072;6.678;2022-07-15T23:49:19;12.10;73.70
